Time;durP1;ratioP1;P1;durP2;ratioP2;P2;SDS_P1;SDS_P2;PMS_P1;PMS_P2;Temp;Humidity;BMP_temperature;BMP_pressure;BME280_temperature;BME280_humidity;BME280_pressure;Samples;Min_cycle;Max_cycle;Signal;HPM_P1;HPM_P2
2022/06/29 00:01:25;;;;;;;7.50;2.27;;;18.10;99.90;;;;;;5090698;28;20478;-47
2022/06/29 00:03:52;;;;;;;4.70;3.20;;;18.20;99.90;;;;;;5090361;28;20475;-47
2022/06/29 00:06:19;;;;;;;4.30;2.20;;;18.30;99.90;;;;;;5090904;28;20463;-47
2022/06/29 00:08:46;;;;;;;3.97;1.77;;;18.30;99.90;;;;;;5090042;28;20443;-46
2022/06/29 00:11:13;;;;;;;3.30;2.33;;;18.30;99.90;;;;;;5089892;28;20475;-47
2022/06/29 00:13:41;;;;;;;2.63;2.07;;;18.20;99.90;;;;;;5090611;28;20523;-49
2022/06/29 00:16:08;;;;;;;2.93;1.90;;;18.30;99.90;;;;;;5090571;28;20546;-48
2022/06/29 00:18:35;;;;;;;2.70;2.00;;;18.30;99.90;;;;;;5090229;28;20530;-47
2022/06/29 00:21:02;;;;;;;5.33;2.53;;;18.30;99.90;;;;;;5089802;28;20522;-48
2022/06/29 00:23:29;;;;;;;4.27;2.20;;;18.30;99.90;;;;;;5090424;28;20455;-47
2022/06/29 00:25:56;;;;;;;3.40;2.27;;;18.30;99.90;;;;;;5090009;28;21016;-47
2022/06/29 00:28:23;;;;;;;4.60;2.50;;;18.30;99.90;;;;;;5090374;28;20446;-48
2022/06/29 00:30:51;;;;;;;3.00;1.97;;;18.30;99.90;;;;;;5090031;28;20436;-48
2022/06/29 00:33:18;;;;;;;6.87;2.17;;;18.30;99.90;;;;;;5090155;28;20551;-47
2022/06/29 00:35:45;;;;;;;4.00;2.10;;;18.30;99.90;;;;;;5089756;28;20475;-49
2022/06/29 00:38:12;;;;;;;3.27;2.50;;;18.10;99.90;;;;;;5090306;28;20504;-46
2022/06/29 00:40:39;;;;;;;3.60;2.93;;;17.90;99.90;;;;;;5089120;28;20447;-47
2022/06/29 00:43:06;;;;;;;4.40;2.63;;;17.50;99.90;;;;;;5089890;28;20920;-46
2022/06/29 00:45:33;;;;;;;3.70;2.23;;;17.30;99.90;;;;;;5089898;28;20463;-47
2022/06/29 00:48:02;;;;;;;4.47;2.60;;;17.10;99.90;;;;;;5089886;28;20462;-48
2022/06/29 00:50:32;;;;;;;5.67;2.37;;;17.10;99.90;;;;;;5089614;28;20439;-49
2022/06/29 00:53:02;;;;;;;3.30;2.47;;;17.30;99.90;;;;;;5089691;28;20486;-49
2022/06/29 00:55:32;;;;;;;3.20;2.20;;;17.50;99.90;;;;;;5089956;28;20471;-48
2022/06/29 00:58:03;;;;;;;2.90;2.13;;;17.60;99.90;;;;;;5089851;28;20475;-49
2022/06/29 01:00:30;;;;;;;4.80;2.73;;;17.80;99.90;;;;;;5090163;28;20508;-47
2022/06/29 01:03:00;;;;;;;4.90;2.57;;;17.90;99.90;;;;;;5089824;28;20439;-49
2022/06/29 01:05:29;;;;;;;3.17;2.23;;;18.10;99.90;;;;;;5090153;28;20474;-47
2022/06/29 01:07:56;;;;;;;2.73;2.07;;;18.00;99.90;;;;;;5089963;28;20444;-48
2022/06/29 01:10:23;;;;;;;6.83;2.97;;;17.90;99.90;;;;;;5089590;28;20572;-47
2022/06/29 01:12:51;;;;;;;4.00;2.30;;;17.80;99.90;;;;;;5089047;28;20463;-47
2022/06/29 01:15:18;;;;;;;3.30;2.13;;;18.00;99.90;;;;;;5089514;28;20469;-50
2022/06/29 01:17:45;;;;;;;4.10;2.47;;;18.10;99.90;;;;;;5089675;28;20944;-48
2022/06/29 01:20:13;;;;;;;4.37;2.00;;;18.10;99.90;;;;;;5089446;28;20503;-50
2022/06/29 01:22:41;;;;;;;5.33;2.00;;;18.10;99.90;;;;;;5089527;28;20442;-46
2022/06/29 01:25:09;;;;;;;3.47;1.80;;;18.10;99.90;;;;;;5089532;28;20551;-47
2022/06/29 01:27:36;;;;;;;2.90;2.03;;;18.20;99.90;;;;;;5089621;28;20538;-47
2022/06/29 01:30:04;;;;;;;5.30;2.03;;;18.20;99.90;;;;;;5089137;28;20497;-50
2022/06/29 01:32:31;;;;;;;8.33;2.10;;;18.20;99.90;;;;;;5089602;28;20536;-48
2022/06/29 01:34:58;;;;;;;5.47;2.30;;;18.20;99.90;;;;;;5088975;28;20774;-46
2022/06/29 01:37:25;;;;;;;3.67;2.20;;;18.30;99.90;;;;;;5089391;28;21012;-46
2022/06/29 01:39:53;;;;;;;4.57;3.80;;;18.20;99.90;;;;;;5089137;28;20963;-48
2022/06/29 01:42:20;;;;;;;2.30;1.63;;;18.20;99.90;;;;;;5089483;28;20898;-47
2022/06/29 01:44:47;;;;;;;4.87;2.03;;;18.10;99.90;;;;;;5089238;28;21045;-46
2022/06/29 01:47:14;;;;;;;3.70;2.13;;;18.10;99.90;;;;;;5089422;28;20478;-48
2022/06/29 01:49:41;;;;;;;2.40;2.10;;;18.10;99.90;;;;;;5089192;28;20497;-47
2022/06/29 01:52:08;;;;;;;4.77;2.77;;;18.00;99.90;;;;;;5090001;28;20485;-46
2022/06/29 01:54:35;;;;;;;3.40;1.83;;;17.80;99.90;;;;;;5092992;28;20509;-47
2022/06/29 01:57:04;;;;;;;4.33;1.80;;;17.70;99.90;;;;;;5093061;28;20493;-47
2022/06/29 01:59:31;;;;;;;6.50;2.27;;;17.70;99.90;;;;;;5092979;28;20882;-47
2022/06/29 02:01:58;;;;;;;4.00;2.57;;;17.70;99.90;;;;;;5092953;28;20530;-46
2022/06/29 02:04:25;;;;;;;5.50;2.30;;;17.50;99.90;;;;;;5092716;28;20967;-47
2022/06/29 02:06:52;;;;;;;3.80;2.37;;;17.20;99.90;;;;;;5092686;28;20522;-47
2022/06/29 02:09:19;;;;;;;3.20;2.33;;;16.80;99.90;;;;;;5092598;28;20516;-47
2022/06/29 02:11:46;;;;;;;3.10;2.30;;;16.80;99.90;;;;;;5092353;28;20507;-47
2022/06/29 02:14:14;;;;;;;7.27;2.60;;;17.00;99.90;;;;;;5092528;28;20475;-47
2022/06/29 02:16:41;;;;;;;3.63;2.33;;;17.20;99.90;;;;;;5092545;28;20547;-47
2022/06/29 02:19:08;;;;;;;5.10;2.57;;;17.20;99.90;;;;;;5092216;28;20566;-48
2022/06/29 02:21:35;;;;;;;2.63;1.90;;;17.20;99.90;;;;;;5092357;28;20432;-47
2022/06/29 02:24:02;;;;;;;4.07;2.47;;;17.30;99.90;;;;;;5092378;28;20542;-50
2022/06/29 02:26:29;;;;;;;4.50;2.33;;;17.30;99.90;;;;;;5092393;28;20903;-46
2022/06/29 02:28:57;;;;;;;3.60;2.13;;;17.30;99.90;;;;;;5092274;28;20447;-46
2022/06/29 02:36:54;;;;;;;2.40;2.00;;;17.60;99.90;;;;;;5092547;28;20993;-47
2022/06/29 02:39:21;;;;;;;5.30;2.87;;;17.60;99.90;;;;;;5091890;28;20507;-47
2022/06/29 02:41:48;;;;;;;3.77;2.10;;;17.60;99.90;;;;;;5092222;28;20638;-46
2022/06/29 02:44:15;;;;;;;3.13;2.53;;;17.70;99.90;;;;;;5092033;28;20435;-47
2022/06/29 02:46:43;;;;;;;4.23;2.20;;;17.70;99.90;;;;;;5092130;28;20456;-48
2022/06/29 02:49:10;;;;;;;3.80;2.53;;;17.70;99.90;;;;;;5091737;28;20475;-47
2022/06/29 02:51:37;;;;;;;4.83;2.33;;;17.80;99.90;;;;;;5091936;28;20848;-47
2022/06/29 02:54:04;;;;;;;5.00;3.30;;;17.80;99.90;;;;;;5091812;28;20485;-50
2022/06/29 02:56:31;;;;;;;4.37;2.20;;;17.90;99.90;;;;;;5091970;28;20459;-47
2022/06/29 02:58:58;;;;;;;3.40;2.43;;;17.90;99.90;;;;;;5091725;28;20816;-47
2022/06/29 03:01:25;;;;;;;4.73;2.50;;;17.80;99.90;;;;;;5091924;28;20941;-47
2022/06/29 03:03:53;;;;;;;3.83;2.27;;;17.80;99.90;;;;;;5090800;28;20513;-48
2022/06/29 03:06:20;;;;;;;3.67;2.70;;;17.80;99.90;;;;;;5091632;28;20495;-47
2022/06/29 03:08:47;;;;;;;4.27;2.23;;;17.90;99.90;;;;;;5091221;28;20476;-48
2022/06/29 03:11:14;;;;;;;6.60;2.80;;;17.90;99.90;;;;;;5091381;28;20823;-47
2022/06/29 03:13:41;;;;;;;3.57;3.10;;;17.80;99.90;;;;;;5091478;28;20570;-49
2022/06/29 03:16:08;;;;;;;5.80;3.53;;;17.20;99.90;;;;;;5091470;28;20491;-47
2022/06/29 03:18:34;;;;;;;3.27;2.70;;;17.10;99.90;;;;;;5091849;28;20435;-46
2022/06/29 03:21:03;;;;;;;5.93;3.00;;;17.20;99.90;;;;;;5091060;28;20447;-50
2022/06/29 03:23:30;;;;;;;4.90;2.70;;;17.30;99.90;;;;;;5091319;28;20524;-49
2022/06/29 03:25:57;;;;;;;4.90;2.60;;;17.30;99.90;;;;;;5091093;28;21038;-47
2022/06/29 03:28:23;;;;;;;4.27;2.40;;;17.10;99.90;;;;;;5091368;28;20502;-47
2022/06/29 03:30:50;;;;;;;3.30;2.50;;;17.20;99.90;;;;;;5091151;28;20522;-49
2022/06/29 03:33:17;;;;;;;5.27;2.77;;;17.30;99.90;;;;;;5091044;28;20574;-47
2022/06/29 03:35:44;;;;;;;4.27;2.67;;;17.40;99.90;;;;;;5092404;28;21043;-47
2022/06/29 03:38:12;;;;;;;3.30;2.23;;;17.50;99.90;;;;;;5091327;28;20439;-48
2022/06/29 03:40:39;;;;;;;5.00;3.40;;;17.60;99.90;;;;;;5090902;28;20460;-47
2022/06/29 03:43:06;;;;;;;5.07;2.50;;;17.60;99.90;;;;;;5091296;28;20530;-47
2022/06/29 03:45:33;;;;;;;3.13;2.50;;;17.40;99.90;;;;;;5090940;28;20471;-47
2022/06/29 03:48:00;;;;;;;3.93;2.57;;;17.10;99.90;;;;;;5090766;28;20486;-49
2022/06/29 03:50:27;;;;;;;5.07;2.43;;;17.00;99.90;;;;;;5090834;28;20518;-47
2022/06/29 03:52:54;;;;;;;5.10;2.40;;;17.00;99.90;;;;;;5090843;28;20582;-47
2022/06/29 03:55:22;;;;;;;3.73;2.63;;;17.10;99.90;;;;;;5091012;28;20456;-47
2022/06/29 03:57:49;;;;;;;5.03;2.57;;;17.30;99.90;;;;;;5090650;28;20522;-48
2022/06/29 04:00:17;;;;;;;2.87;2.57;;;17.40;99.90;;;;;;5090386;28;20467;-47
2022/06/29 04:02:44;;;;;;;4.17;2.63;;;17.60;99.90;;;;;;5090850;28;20439;-47
2022/06/29 04:05:11;;;;;;;2.97;2.40;;;17.70;99.90;;;;;;5090583;28;20495;-47
2022/06/29 04:07:38;;;;;;;10.83;3.40;;;17.60;99.90;;;;;;5090781;28;20873;-47
2022/06/29 04:10:05;;;;;;;4.90;3.00;;;17.60;99.90;;;;;;5090384;28;20527;-47
2022/06/29 04:12:35;;;;;;;5.07;2.77;;;17.60;99.90;;;;;;5090131;28;21192;-47
2022/06/29 04:15:03;;;;;;;5.63;2.63;;;17.70;99.90;;;;;;5090106;28;20499;-48
2022/06/29 04:17:30;;;;;;;3.73;2.33;;;17.80;99.90;;;;;;5090517;28;20439;-47
2022/06/29 04:19:57;;;;;;;6.10;3.27;;;17.90;99.90;;;;;;5090020;28;20443;-47
2022/06/29 04:22:24;;;;;;;4.20;2.97;;;18.00;99.90;;;;;;5090170;28;20471;-47
2022/06/29 04:24:51;;;;;;;3.13;2.43;;;18.00;99.90;;;;;;5090314;28;20460;-47
2022/06/29 04:27:18;;;;;;;4.97;2.67;;;17.90;99.90;;;;;;5090102;28;20443;-47
2022/06/29 04:29:47;;;;;;;5.07;3.33;;;17.90;99.90;;;;;;5089881;28;20475;-48
2022/06/29 04:32:14;;;;;;;4.10;2.37;;;17.80;99.90;;;;;;5089895;28;20472;-47
2022/06/29 04:34:40;;;;;;;5.50;3.33;;;17.80;99.90;;;;;;5089738;28;20529;-47
2022/06/29 04:37:07;;;;;;;7.17;3.07;;;17.90;99.90;;;;;;5090077;28;20447;-47
2022/06/29 04:39:34;;;;;;;3.60;2.80;;;18.00;99.90;;;;;;5089703;28;20451;-48
2022/06/29 04:42:01;;;;;;;4.13;2.70;;;18.00;99.90;;;;;;5090187;28;20527;-47
2022/06/29 04:44:28;;;;;;;4.20;2.40;;;18.00;99.90;;;;;;5089983;28;20471;-48
2022/06/29 04:46:56;;;;;;;3.50;3.07;;;18.10;99.90;;;;;;5090220;28;20439;-48
2022/06/29 04:49:23;;;;;;;6.80;3.57;;;18.10;99.90;;;;;;5089593;28;20439;-47
2022/06/29 04:51:51;;;;;;;6.87;3.10;;;18.10;99.90;;;;;;5090403;28;20440;-48
2022/06/29 04:54:17;;;;;;;4.00;2.70;;;18.10;99.90;;;;;;5089723;28;20562;-47
2022/06/29 04:56:44;;;;;;;4.90;2.80;;;18.10;99.90;;;;;;5089983;28;20515;-49
2022/06/29 04:59:11;;;;;;;6.00;3.00;;;18.10;99.90;;;;;;5089937;28;20519;-47
2022/06/29 05:01:38;;;;;;;6.07;3.50;;;18.20;99.90;;;;;;5089689;28;20523;-47
2022/06/29 05:04:06;;;;;;;4.60;3.10;;;18.20;99.90;;;;;;5089822;28;20538;-48
2022/06/29 05:06:33;;;;;;;4.93;4.10;;;18.30;99.90;;;;;;5089524;28;20462;-47
2022/06/29 05:09:00;;;;;;;3.97;2.87;;;18.30;99.90;;;;;;5089454;28;20467;-47
2022/06/29 05:11:28;;;;;;;4.80;2.80;;;18.30;99.90;;;;;;5089703;28;20436;-47
2022/06/29 05:13:55;;;;;;;6.50;3.40;;;18.40;99.90;;;;;;5089705;28;20471;-47
2022/06/29 05:16:22;;;;;;;4.10;2.90;;;18.40;99.90;;;;;;5089628;28;20497;-48
2022/06/29 05:18:49;;;;;;;5.80;3.03;;;18.40;99.90;;;;;;5089293;28;21009;-51
2022/06/29 05:21:19;;;;;;;6.03;2.67;;;18.50;99.90;;;;;;5089841;28;20450;-48
2022/06/29 05:23:46;;;;;;;5.00;3.13;;;18.50;99.90;;;;;;5089561;28;20462;-47
2022/06/29 05:26:14;;;;;;;6.53;2.63;;;18.50;99.90;;;;;;5089813;28;20459;-49
2022/06/29 05:28:41;;;;;;;6.13;2.97;;;18.50;99.90;;;;;;5092881;28;20453;-46
2022/06/29 05:31:09;;;;;;;5.80;3.20;;;18.50;99.90;;;;;;5093746;28;20447;-49
2022/06/29 05:33:38;;;;;;;4.03;3.10;;;18.50;99.90;;;;;;5093232;28;20486;-47
2022/06/29 05:36:07;;;;;;;7.63;4.70;;;18.40;99.90;;;;;;5093248;28;21080;-47
2022/06/29 05:38:36;;;;;;;13.30;8.00;;;18.40;99.90;;;;;;5093366;28;20475;-49
2022/06/29 05:41:03;;;;;;;9.70;5.60;;;18.30;99.90;;;;;;5093127;28;20435;-47
2022/06/29 05:43:31;;;;;;;5.23;4.53;;;18.30;99.90;;;;;;5093227;28;20431;-47
2022/06/29 05:45:58;;;;;;;6.10;4.67;;;18.30;99.90;;;;;;5093544;28;20463;-47
2022/06/29 05:48:25;;;;;;;5.50;4.10;;;18.30;99.90;;;;;;5093290;28;20611;-46
2022/06/29 05:50:52;;;;;;;6.57;4.67;;;18.30;99.90;;;;;;5092928;28;21005;-47
2022/06/29 05:53:19;;;;;;;6.87;5.33;;;18.30;99.90;;;;;;5093204;28;20471;-47
2022/06/29 05:55:47;;;;;;;7.57;3.80;;;18.30;99.90;;;;;;5093355;28;20998;-47
2022/06/29 05:58:18;;;;;;;8.00;4.70;;;18.40;99.90;;;;;;5092932;28;20522;-47
2022/06/29 06:00:46;;;;;;;5.43;3.47;;;18.10;99.90;;;;;;5092853;28;20525;-50
2022/06/29 06:03:12;;;;;;;5.20;3.50;;;18.10;99.90;;;;;;5092805;28;20478;-47
2022/06/29 06:05:39;;;;;;;5.30;3.50;;;18.10;99.90;;;;;;5092914;28;20459;-46
2022/06/29 06:08:06;;;;;;;5.27;3.10;;;18.10;99.90;;;;;;5092918;28;20522;-47
2022/06/29 06:10:33;;;;;;;6.00;5.17;;;18.20;99.90;;;;;;5092444;28;20885;-49
2022/06/29 06:13:02;;;;;;;5.93;3.87;;;18.30;99.90;;;;;;5092893;28;20562;-50
2022/06/29 06:15:29;;;;;;;5.00;3.80;;;18.30;99.90;;;;;;5092549;28;20964;-49
2022/06/29 06:17:56;;;;;;;5.97;3.73;;;18.30;99.90;;;;;;5092699;28;20526;-47
2022/06/29 06:20:23;;;;;;;4.17;3.27;;;18.30;99.90;;;;;;5092016;28;20531;-49
2022/06/29 06:22:50;;;;;;;6.10;3.67;;;18.40;99.90;;;;;;5092591;28;20435;-47
2022/06/29 06:25:17;;;;;;;5.97;4.30;;;18.40;99.90;;;;;;5092318;28;20482;-50
2022/06/29 06:27:44;;;;;;;5.50;3.60;;;18.30;99.90;;;;;;5092421;28;20527;-47
2022/06/29 06:30:13;;;;;;;5.90;4.10;;;18.40;99.90;;;;;;5092051;28;20463;-47
2022/06/29 06:32:40;;;;;;;5.60;3.17;;;18.40;99.90;;;;;;5092404;28;20478;-47
2022/06/29 06:35:08;;;;;;;4.17;3.57;;;18.40;99.90;;;;;;5092021;28;20559;-47
2022/06/29 06:37:35;;;;;;;4.97;3.53;;;18.50;99.90;;;;;;5092219;28;20954;-47
2022/06/29 06:42:46;;;;;;;3.60;3.23;;;18.40;99.90;;;;;;5092395;28;20785;-49
2022/06/29 06:45:14;;;;;;;4.30;3.10;;;18.40;99.90;;;;;;5092202;28;20456;-47
2022/06/29 06:47:41;;;;;;;4.53;3.13;;;18.40;99.90;;;;;;5092125;28;20527;-47
2022/06/29 06:50:09;;;;;;;5.17;3.30;;;18.30;99.90;;;;;;5091750;28;20504;-49
2022/06/29 06:52:36;;;;;;;4.17;3.13;;;18.30;99.90;;;;;;5092040;28;20482;-48
2022/06/29 06:55:03;;;;;;;4.13;3.60;;;18.40;99.90;;;;;;5092007;28;20557;-47
2022/06/29 06:57:30;;;;;;;6.20;3.37;;;18.40;99.90;;;;;;5091973;28;20895;-47
2022/06/29 06:59:57;;;;;;;4.03;3.57;;;18.50;99.90;;;;;;5091629;28;20439;-47
2022/06/29 07:02:26;;;;;;;5.30;3.30;;;18.60;99.90;;;;;;5091744;28;20501;-49
2022/06/29 07:04:53;;;;;;;4.17;3.53;;;18.70;99.90;;;;;;5091484;28;20513;-47
2022/06/29 07:07:20;;;;;;;4.70;3.93;;;18.80;99.90;;;;;;5091608;28;20478;-48
2022/06/29 07:09:46;;;;;;;5.23;4.50;;;18.90;99.90;;;;;;5091319;28;20439;-47
2022/06/29 07:12:13;;;;;;;5.43;3.83;;;18.90;99.90;;;;;;5091267;28;20447;-48
2022/06/29 07:14:40;;;;;;;5.73;3.40;;;19.00;99.90;;;;;;5091387;28;20566;-47
2022/06/29 07:17:07;;;;;;;4.80;3.27;;;18.90;99.90;;;;;;5091429;28;20467;-48
2022/06/29 07:19:36;;;;;;;5.73;3.70;;;18.80;99.90;;;;;;5091105;28;20490;-48
2022/06/29 07:22:03;;;;;;;5.87;2.83;;;18.80;99.90;;;;;;5091250;28;20447;-48
2022/06/29 07:24:30;;;;;;;3.80;3.30;;;18.80;99.90;;;;;;5091213;28;20504;-47
2022/06/29 07:26:57;;;;;;;4.47;2.80;;;18.60;99.90;;;;;;5091407;28;20478;-49
2022/06/29 07:29:24;;;;;;;3.13;2.77;;;18.70;99.90;;;;;;5091017;28;20534;-48
2022/06/29 07:31:51;;;;;;;5.77;3.60;;;18.50;99.90;;;;;;5091241;28;20436;-49
2022/06/29 07:34:19;;;;;;;6.00;3.90;;;18.40;99.90;;;;;;5090827;28;20475;-47
2022/06/29 07:36:48;;;;;;;5.20;3.00;;;18.30;99.90;;;;;;5090965;28;20487;-47
2022/06/29 07:39:15;;;;;;;5.67;3.03;;;18.30;99.90;;;;;;5090842;28;20856;-47
2022/06/29 07:41:42;;;;;;;3.80;3.33;;;18.30;99.90;;;;;;5090966;28;20534;-50
2022/06/29 07:44:09;;;;;;;3.90;2.90;;;18.40;99.90;;;;;;5091187;28;20800;-47
2022/06/29 07:46:35;;;;;;;3.40;3.10;;;18.60;99.90;;;;;;5090993;28;20455;-47
2022/06/29 07:49:02;;;;;;;6.70;3.10;;;18.70;99.90;;;;;;5090717;28;20531;-48
2022/06/29 07:51:30;;;;;;;4.40;3.10;;;18.80;99.90;;;;;;5090498;28;20463;-47
2022/06/29 07:53:58;;;;;;;3.73;3.07;;;18.90;99.90;;;;;;5090691;28;20562;-48
2022/06/29 07:56:25;;;;;;;4.23;2.80;;;19.00;99.90;;;;;;5090640;28;20556;-47
2022/06/29 07:58:52;;;;;;;6.17;3.30;;;19.00;99.90;;;;;;5090643;28;20500;-47
2022/06/29 08:01:19;;;;;;;5.97;4.37;;;19.10;99.90;;;;;;5090863;28;20471;-49
2022/06/29 08:03:46;;;;;;;5.17;3.00;;;19.10;99.90;;;;;;5090712;28;20486;-48
2022/06/29 08:06:15;;;;;;;5.70;4.27;;;19.20;99.90;;;;;;5090494;28;20463;-48
2022/06/29 08:08:42;;;;;;;4.80;3.40;;;19.20;99.90;;;;;;5090272;28;20522;-46
2022/06/29 08:11:11;;;;;;;5.40;3.30;;;19.20;99.90;;;;;;5090482;28;20674;-47
2022/06/29 08:13:38;;;;;;;3.93;3.20;;;19.20;99.90;;;;;;5090692;28;20471;-50
2022/06/29 08:16:06;;;;;;;3.60;3.30;;;19.10;99.90;;;;;;5090405;28;20462;-48
2022/06/29 08:18:33;;;;;;;5.80;3.97;;;19.20;99.90;;;;;;5090221;28;20940;-47
2022/06/29 08:21:00;;;;;;;4.50;3.40;;;19.20;99.90;;;;;;5089869;28;20497;-50
2022/06/29 08:23:27;;;;;;;8.73;3.60;;;19.20;99.90;;;;;;5090207;28;20474;-46
2022/06/29 08:25:54;;;;;;;4.00;3.03;;;19.30;99.90;;;;;;5090080;28;20558;-50
2022/06/29 08:28:23;;;;;;;5.20;2.97;;;19.20;99.90;;;;;;5090203;28;21087;-47
2022/06/29 08:30:49;;;;;;;6.00;3.27;;;19.20;99.90;;;;;;5090074;28;20512;-47
2022/06/29 08:33:17;;;;;;;4.10;3.50;;;19.20;99.90;;;;;;5090018;28;20522;-48
2022/06/29 08:35:44;;;;;;;5.83;4.10;;;19.30;99.90;;;;;;5089856;28;20478;-47
2022/06/29 08:38:11;;;;;;;6.10;3.40;;;19.30;99.90;;;;;;5090179;28;20443;-49
2022/06/29 08:40:44;;;;;;;6.07;3.60;;;19.30;99.90;;;;;;5089683;28;20440;-48
2022/06/29 08:43:13;;;;;;;3.40;2.70;;;19.30;99.90;;;;;;5090057;28;20447;-47
2022/06/29 08:45:44;;;;;;;5.87;4.10;;;19.40;99.90;;;;;;5089832;28;20509;-49
2022/06/29 08:48:11;;;;;;;6.93;3.67;;;19.40;99.90;;;;;;5090146;28;20456;-48
2022/06/29 08:50:39;;;;;;;4.23;3.30;;;19.50;99.90;;;;;;5089611;28;20475;-49
2022/06/29 08:53:07;;;;;;;5.10;3.87;;;19.50;99.90;;;;;;5089825;28;20844;-48
2022/06/29 08:55:37;;;;;;;4.90;3.37;;;19.60;99.90;;;;;;5089680;28;20479;-47
2022/06/29 08:58:06;;;;;;;6.10;3.70;;;19.60;99.90;;;;;;5089761;28;20439;-48
2022/06/29 09:00:36;;;;;;;5.90;3.70;;;19.60;99.90;;;;;;5089447;28;20547;-48
2022/06/29 09:03:05;;;;;;;5.40;3.83;;;19.60;99.90;;;;;;5092622;28;20807;-50
2022/06/29 09:05:33;;;;;;;5.13;3.07;;;19.60;99.90;;;;;;5094106;28;20459;-47
2022/06/29 09:08:00;;;;;;;4.27;3.33;;;19.60;99.90;;;;;;5093989;28;20526;-47
2022/06/29 09:10:30;;;;;;;4.80;3.33;;;19.70;99.90;;;;;;5093831;28;20463;-48
2022/06/29 09:12:59;;;;;;;4.57;3.40;;;19.70;99.90;;;;;;5093975;28;20534;-47
2022/06/29 09:15:32;;;;;;;7.17;3.50;;;19.70;99.90;;;;;;5093842;28;20540;-48
2022/06/29 09:17:59;;;;;;;3.80;3.40;;;19.70;99.90;;;;;;5093981;28;20434;-47
2022/06/29 09:20:38;;;;;;;5.23;3.43;;;19.70;99.90;;;;;;5093405;28;20463;-49
2022/06/29 09:23:05;;;;;;;3.77;3.37;;;19.70;99.90;;;;;;5093962;28;20439;-47
2022/06/29 09:25:33;;;;;;;7.53;4.73;;;19.70;99.90;;;;;;5093499;28;20530;-47
2022/06/29 09:28:00;;;;;;;4.20;2.70;;;19.70;99.90;;;;;;5093665;28;20467;-47
2022/06/29 09:30:28;;;;;;;5.53;3.57;;;19.80;99.90;;;;;;5093576;28;20444;-47
2022/06/29 09:33:00;;;;;;;4.67;3.50;;;19.80;99.90;;;;;;5093636;28;20443;-47
2022/06/29 09:35:29;;;;;;;4.00;3.60;;;19.80;99.90;;;;;;5093859;28;20486;-47
2022/06/29 09:38:24;;;;;;;6.93;4.00;;;19.70;99.90;;;;;;5092010;28;20932;-48
2022/06/29 09:41:02;;;;;;;4.20;2.90;;;19.60;99.90;;;;;;5091976;28;20435;-47
2022/06/29 09:43:30;;;;;;;3.30;2.90;;;19.60;99.90;;;;;;5092039;28;20447;-48
2022/06/29 09:45:57;;;;;;;4.73;3.43;;;19.60;99.90;;;;;;5092179;28;20491;-49
2022/06/29 09:48:26;;;;;;;4.43;3.60;;;19.50;99.90;;;;;;5092024;28;20440;-47
2022/06/29 09:50:56;;;;;;;7.60;4.40;;;19.60;99.90;;;;;;5091617;28;20481;-48
2022/06/29 09:53:29;;;;;;;8.13;3.57;;;19.60;99.90;;;;;;5091890;28;21011;-47
2022/06/29 09:56:03;;;;;;;3.87;3.00;;;19.70;99.90;;;;;;5091730;28;20975;-49
2022/06/29 09:58:37;;;;;;;4.53;3.30;;;19.60;99.90;;;;;;5091708;28;20471;-47
2022/06/29 10:03:53;;;;;;;5.63;3.37;;;19.50;99.90;;;;;;5091740;28;20452;-47
2022/06/29 10:06:22;;;;;;;4.33;3.03;;;19.50;99.90;;;;;;5091657;28;20498;-48
2022/06/29 10:08:49;;;;;;;5.97;3.43;;;19.40;99.90;;;;;;5091260;28;20939;-47
2022/06/29 10:14:17;;;;;;;6.40;3.17;;;19.60;99.90;;;;;;5091297;28;20467;-50
2022/06/29 10:16:53;;;;;;;5.17;3.20;;;19.60;99.90;;;;;;5091488;28;20818;-49
2022/06/29 10:19:31;;;;;;;4.67;4.00;;;19.80;99.90;;;;;;5091416;28;20556;-47
2022/06/29 10:22:01;;;;;;;5.57;3.77;;;19.80;99.90;;;;;;5090856;28;20451;-47
2022/06/29 10:24:28;;;;;;;6.47;4.33;;;19.80;99.90;;;;;;5091702;28;20484;-47
2022/06/29 10:26:55;;;;;;;7.10;3.60;;;19.80;99.90;;;;;;5091482;28;20440;-48
2022/06/29 10:29:33;;;;;;;4.57;3.63;;;19.80;99.90;;;;;;5091111;28;20444;-49
2022/06/29 10:32:13;;;;;;;4.83;3.80;;;19.80;99.90;;;;;;5091307;28;20893;-50
2022/06/29 10:35:06;;;;;;;4.17;3.77;;;19.80;99.90;;;;;;5047236;28;1243329;-47
2022/06/29 10:37:31;;;;;;;5.83;3.90;;;19.90;99.90;;;;;;5092039;28;20435;-47
2022/06/29 10:40:01;;;;;;;15.43;4.77;;;20.00;99.90;;;;;;5092241;28;20783;-47
2022/06/29 10:45:25;;;;;;;6.10;3.77;;;20.20;99.90;;;;;;5092158;28;20806;-48
2022/06/29 10:48:15;;;;;;;4.43;4.03;;;20.30;99.90;;;;;;5091850;28;20440;-47
2022/06/29 10:50:43;;;;;;;6.97;3.93;;;20.40;99.90;;;;;;5092162;28;20431;-47
2022/06/29 10:53:13;;;;;;;6.00;3.90;;;20.50;99.90;;;;;;5092253;28;20463;-47
2022/06/29 10:55:41;;;;;;;6.67;3.93;;;20.60;99.90;;;;;;5091852;28;20556;-50
2022/06/29 10:58:08;;;;;;;7.00;3.17;;;20.70;99.90;;;;;;5091845;28;20517;-50
2022/06/29 11:00:38;;;;;;;3.90;3.50;;;20.70;99.90;;;;;;5091615;28;20932;-49
2022/06/29 11:03:10;;;;;;;5.77;4.03;;;20.70;99.90;;;;;;5091907;28;20532;-48
2022/06/29 11:12:01;;;;;;;4.40;4.00;;;20.60;99.90;;;;;;5091635;28;20455;-47
2022/06/29 11:13:58;;;;;;;8.20;3.40;;;20.80;99.90;;;;;;5091671;28;20415;-49
2022/06/29 11:16:31;;;;;;;4.20;3.07;;;20.90;99.90;;;;;;5091498;28;20712;-47
2022/06/29 11:18:58;;;;;;;6.70;3.70;;;20.90;99.90;;;;;;5091047;28;20443;-48
2022/06/29 11:21:25;;;;;;;5.37;3.10;;;21.00;99.90;;;;;;5091705;28;20526;-47
2022/06/29 11:24:04;;;;;;;4.80;3.27;;;21.10;99.90;;;;;;5091313;28;20492;-47
2022/06/29 11:26:33;;;;;;;4.97;3.13;;;21.10;99.90;;;;;;5090983;28;20459;-47
2022/06/29 11:29:01;;;;;;;5.30;2.90;;;21.20;99.90;;;;;;5091184;28;20522;-47
2022/06/29 11:31:28;;;;;;;4.83;3.37;;;21.20;99.90;;;;;;5091294;28;20450;-50
2022/06/29 11:33:55;;;;;;;6.90;2.80;;;21.30;99.90;;;;;;5090993;28;20439;-47
2022/06/29 11:36:25;;;;;;;5.67;3.57;;;21.30;99.90;;;;;;5090924;28;20944;-48
2022/06/29 11:38:54;;;;;;;5.40;3.63;;;21.40;99.90;;;;;;5090895;28;20482;-47
2022/06/29 11:41:25;;;;;;;4.67;3.27;;;21.30;99.90;;;;;;5091558;28;20478;-47
2022/06/29 11:44:03;;;;;;;6.30;3.70;;;21.40;99.90;;;;;;5090986;28;20513;-47
2022/06/29 11:46:32;;;;;;;4.90;2.90;;;21.40;99.90;;;;;;5090984;28;20538;-48
2022/06/29 11:51:55;;;;;;;4.33;3.53;;;21.50;99.90;;;;;;5090973;28;20417;-48
2022/06/29 11:54:39;;;;;;;5.27;3.20;;;21.60;99.90;;;;;;5091077;28;20451;-47
2022/06/29 11:57:09;;;;;;;3.90;2.70;;;21.70;99.90;;;;;;5090717;28;20530;-48
2022/06/29 11:59:36;;;;;;;3.43;3.00;;;21.70;99.90;;;;;;5090451;28;20435;-49
2022/06/29 12:02:03;;;;;;;8.00;3.37;;;21.80;99.90;;;;;;5090666;28;20444;-47
2022/06/29 12:04:32;;;;;;;6.40;3.37;;;21.80;99.90;;;;;;5090514;28;20920;-47
2022/06/29 12:07:04;;;;;;;3.93;2.90;;;21.80;99.90;;;;;;5090589;28;20966;-47
2022/06/29 12:09:32;;;;;;;4.93;3.27;;;21.80;99.90;;;;;;5090504;28;20482;-47
2022/06/29 12:11:59;;;;;;;5.20;3.03;;;21.90;99.90;;;;;;5090147;28;20439;-48
2022/06/29 12:14:27;;;;;;;4.73;2.90;;;21.90;99.90;;;;;;5090366;28;20479;-47
2022/06/29 12:16:54;;;;;;;3.80;3.40;;;21.90;99.90;;;;;;5090323;28;20912;-49
2022/06/29 12:19:21;;;;;;;4.27;3.77;;;21.80;99.90;;;;;;5090085;28;20475;-47
2022/06/29 12:21:48;;;;;;;4.57;3.40;;;21.80;99.90;;;;;;5090043;28;20561;-48
2022/06/29 12:24:16;;;;;;;4.07;2.77;;;21.80;99.90;;;;;;5090486;28;20817;-47
2022/06/29 12:26:43;;;;;;;4.83;2.60;;;21.80;99.90;;;;;;5090387;28;20791;-49
2022/06/29 12:29:13;;;;;;;6.30;3.00;;;21.80;99.90;;;;;;5090067;28;20438;-47
2022/06/29 12:31:42;;;;;;;3.33;3.03;;;21.80;99.90;;;;;;5090479;28;20436;-47
2022/06/29 12:34:10;;;;;;;4.27;2.80;;;21.70;99.90;;;;;;5089795;28;20450;-47
2022/06/29 12:36:37;;;;;;;2.97;2.47;;;21.80;99.90;;;;;;5089816;28;20485;-47
2022/06/29 12:39:05;;;;;;;4.50;2.90;;;21.80;99.90;;;;;;5090063;28;20475;-47
2022/06/29 12:41:33;;;;;;;5.00;2.73;;;22.00;99.90;;;;;;5090178;28;20566;-49
2022/06/29 12:44:02;;;;;;;4.57;2.57;;;22.10;99.90;;;;;;5089843;28;20474;-48
2022/06/29 12:46:29;;;;;;;4.90;2.93;;;22.20;99.90;;;;;;5088912;28;20468;-48
2022/06/29 12:48:58;;;;;;;3.97;2.30;;;22.30;99.90;;;;;;5089818;28;20500;-47
2022/06/29 12:51:25;;;;;;;6.37;2.90;;;22.30;99.90;;;;;;5090001;28;20522;-50
2022/06/29 12:53:52;;;;;;;3.57;2.47;;;22.40;99.90;;;;;;5089991;28;20447;-47
2022/06/29 12:56:19;;;;;;;5.27;2.97;;;22.40;99.90;;;;;;5089776;28;20570;-47
2022/06/29 12:58:46;;;;;;;8.87;3.27;;;22.50;99.90;;;;;;5089537;28;20447;-45
2022/06/29 13:01:13;;;;;;;5.90;2.60;;;22.50;99.90;;;;;;5090057;28;20520;-50
2022/06/29 13:03:40;;;;;;;4.07;2.63;;;22.50;99.90;;;;;;5089940;28;20482;-48
2022/06/29 13:06:08;;;;;;;3.60;2.23;;;22.50;99.90;;;;;;5089884;28;20463;-47
2022/06/29 13:08:35;;;;;;;4.70;2.57;;;22.60;99.90;;;;;;5089824;28;20472;-47
2022/06/29 13:11:02;;;;;;;3.80;2.80;;;22.60;99.90;;;;;;5089162;28;20439;-47
2022/06/29 13:13:30;;;;;;;6.10;3.27;;;22.70;99.90;;;;;;5089728;28;20530;-48
2022/06/29 13:15:57;;;;;;;4.53;1.97;;;22.70;99.90;;;;;;5089608;28;20536;-49